Startpagina
METAR-TAF:

METAR-TAF

Vliegvelden :

Düsseldorf, Duitsland

Flughafen Düsseldorf

breedte: 51-18N, lengte: 006-46E, hoogte: 45 m

Actueel weer

Dit bericht is 15 minuten geleden gemaakt, om 09:50 UTC
Wind 9 kt uit het zuiden, variërend tussen het zuidoosten en het zuiden
Temperatuur 2°C
Vochtigheid 69%
Druk 1020 hPa
Zicht 10 km of meer
geen wolken onder 1500 m en geen cumulonimbus

METAR: EDDL 190950Z 17009KT 130V190 CAVOK 02/M03 Q1020 NOSIG

Tijdstip: 11:05 (10:05 UTC)

Verwachting

Dit bericht is 5 uur en het 5 minuten geleden gemaakt, om 05:00 UTC
Verwachting geldig van 19 om 06 UTC tot 20 om 12 UTC
Wind 7 kt uit het zuiden
Zicht 10 km of meer
geen wolken onder 1500 m en geen cumulonimbus
Wijzigt naar
van 19 om 14 UTC tot 19 om 17 UTC
Wind 4 kt uit het oostnoordoosten

TAF: EDDL 190500Z 1906/2012 17007KT CAVOK BECMG 1914/1917 06004KT

Waarnemingen en weersverwachtingen van meer dan 4000 vliegvelden (METAR en TAF).

De beschikbare stations zijn de gele en rode punten op de kaart.

Ga met uw muis naar het station om de naam te zien.

Klik dan om waarnemingen en weersverwachtingen te zien.

kaart wijzigen: klik op de groene knoppen met een zwart kruis om in te zoomen, op de groene knop met een streepje om uit te zoomen of op de groene pijlen voor aangrenzende kaarten.


METAR-TAF: